sensor_id;sensor_type;location;lat;lon;timestamp;P1;durP1;ratioP1;P2;durP2;ratioP2
4424;SDS011;2225;53.568;13.266;2024-03-25T00:00:13;8.10;;;3.13;;
4424;SDS011;2225;53.568;13.266;2024-03-25T00:02:40;5.63;;;2.93;;
4424;SDS011;2225;53.568;13.266;2024-03-25T00:05:07;7.30;;;3.70;;
4424;SDS011;2225;53.568;13.266;2024-03-25T00:07:37;6.00;;;2.90;;
4424;SDS011;2225;53.568;13.266;2024-03-25T00:10:04;7.23;;;3.80;;
4424;SDS011;2225;53.568;13.266;2024-03-25T00:12:36;7.67;;;3.20;;
4424;SDS011;2225;53.568;13.266;2024-03-25T00:15:03;6.13;;;2.93;;
4424;SDS011;2225;53.568;13.266;2024-03-25T00:17:29;7.30;;;3.20;;
4424;SDS011;2225;53.568;13.266;2024-03-25T00:19:55;7.90;;;3.70;;
4424;SDS011;2225;53.568;13.266;2024-03-25T00:22:21;6.70;;;2.80;;
4424;SDS011;2225;53.568;13.266;2024-03-25T00:24:50;7.00;;;2.90;;
4424;SDS011;2225;53.568;13.266;2024-03-25T00:27:16;6.23;;;3.10;;
4424;SDS011;2225;53.568;13.266;2024-03-25T00:29:42;7.23;;;2.90;;
4424;SDS011;2225;53.568;13.266;2024-03-25T00:32:09;7.13;;;3.27;;
4424;SDS011;2225;53.568;13.266;2024-03-25T00:34:35;7.90;;;3.23;;
4424;SDS011;2225;53.568;13.266;2024-03-25T00:37:02;7.10;;;3.03;;
4424;SDS011;2225;53.568;13.266;2024-03-25T00:39:29;7.57;;;2.80;;
4424;SDS011;2225;53.568;13.266;2024-03-25T00:41:57;6.07;;;2.43;;
4424;SDS011;2225;53.568;13.266;2024-03-25T00:44:24;5.00;;;2.47;;
4424;SDS011;2225;53.568;13.266;2024-03-25T00:46:50;6.17;;;2.60;;
4424;SDS011;2225;53.568;13.266;2024-03-25T00:49:16;6.47;;;2.90;;
4424;SDS011;2225;53.568;13.266;2024-03-25T00:51:42;6.07;;;3.00;;
4424;SDS011;2225;53.568;13.266;2024-03-25T00:54:08;6.13;;;3.20;;
4424;SDS011;2225;53.568;13.266;2024-03-25T00:56:34;7.50;;;3.27;;
4424;SDS011;2225;53.568;13.266;2024-03-25T00:59:00;7.63;;;3.40;;
4424;SDS011;2225;53.568;13.266;2024-03-25T01:01:29;7.60;;;3.83;;
4424;SDS011;2225;53.568;13.266;2024-03-25T01:03:55;6.17;;;3.10;;
4424;SDS011;2225;53.568;13.266;2024-03-25T01:06:21;7.57;;;3.60;;
4424;SDS011;2225;53.568;13.266;2024-03-25T01:08:47;7.43;;;3.60;;
4424;SDS011;2225;53.568;13.266;2024-03-25T01:11:13;6.67;;;3.53;;
4424;SDS011;2225;53.568;13.266;2024-03-25T01:13:39;6.03;;;3.23;;
4424;SDS011;2225;53.568;13.266;2024-03-25T01:16:07;9.67;;;3.70;;
4424;SDS011;2225;53.568;13.266;2024-03-25T01:18:33;10.50;;;4.40;;
4424;SDS011;2225;53.568;13.266;2024-03-25T01:20:59;8.43;;;4.23;;
4424;SDS011;2225;53.568;13.266;2024-03-25T01:23:25;8.60;;;3.73;;
4424;SDS011;2225;53.568;13.266;2024-03-25T01:25:51;8.20;;;4.13;;
4424;SDS011;2225;53.568;13.266;2024-03-25T01:28:17;9.37;;;4.37;;
4424;SDS011;2225;53.568;13.266;2024-03-25T01:30:44;9.47;;;4.60;;
4424;SDS011;2225;53.568;13.266;2024-03-25T01:33:10;8.67;;;4.87;;
4424;SDS011;2225;53.568;13.266;2024-03-25T01:35:36;8.60;;;4.97;;
4424;SDS011;2225;53.568;13.266;2024-03-25T01:38:02;8.43;;;5.10;;
4424;SDS011;2225;53.568;13.266;2024-03-25T01:40:28;12.70;;;5.87;;
4424;SDS011;2225;53.568;13.266;2024-03-25T01:42:58;9.40;;;5.60;;
4424;SDS011;2225;53.568;13.266;2024-03-25T01:45:27;9.60;;;5.30;;
4424;SDS011;2225;53.568;13.266;2024-03-25T01:47:56;10.23;;;6.33;;
4424;SDS011;2225;53.568;13.266;2024-03-25T01:50:24;11.80;;;6.80;;
4424;SDS011;2225;53.568;13.266;2024-03-25T01:52:52;15.77;;;5.80;;
4424;SDS011;2225;53.568;13.266;2024-03-25T01:55:23;10.10;;;6.00;;
4424;SDS011;2225;53.568;13.266;2024-03-25T01:57:52;11.37;;;6.13;;
4424;SDS011;2225;53.568;13.266;2024-03-25T02:00:19;9.93;;;6.60;;
4424;SDS011;2225;53.568;13.266;2024-03-25T02:02:45;11.50;;;6.40;;
4424;SDS011;2225;53.568;13.266;2024-03-25T02:05:15;16.60;;;5.57;;
4424;SDS011;2225;53.568;13.266;2024-03-25T02:07:43;11.27;;;6.63;;
4424;SDS011;2225;53.568;13.266;2024-03-25T02:10:10;9.37;;;5.87;;
4424;SDS011;2225;53.568;13.266;2024-03-25T02:12:43;10.47;;;6.37;;
4424;SDS011;2225;53.568;13.266;2024-03-25T02:15:11;9.40;;;6.07;;
4424;SDS011;2225;53.568;13.266;2024-03-25T02:17:40;10.47;;;6.17;;
4424;SDS011;2225;53.568;13.266;2024-03-25T02:20:07;10.37;;;6.20;;
4424;SDS011;2225;53.568;13.266;2024-03-25T02:22:34;11.00;;;6.33;;
4424;SDS011;2225;53.568;13.266;2024-03-25T02:25:02;10.40;;;5.90;;
4424;SDS011;2225;53.568;13.266;2024-03-25T02:27:33;11.50;;;6.70;;
4424;SDS011;2225;53.568;13.266;2024-03-25T02:30:07;9.50;;;6.57;;
4424;SDS011;2225;53.568;13.266;2024-03-25T02:32:37;11.97;;;6.47;;
4424;SDS011;2225;53.568;13.266;2024-03-25T02:35:04;11.80;;;7.37;;
4424;SDS011;2225;53.568;13.266;2024-03-25T02:37:33;12.27;;;7.60;;
4424;SDS011;2225;53.568;13.266;2024-03-25T02:40:01;17.23;;;7.73;;
4424;SDS011;2225;53.568;13.266;2024-03-25T02:42:30;13.10;;;6.53;;
4424;SDS011;2225;53.568;13.266;2024-03-25T02:44:57;11.40;;;6.83;;
4424;SDS011;2225;53.568;13.266;2024-03-25T02:47:24;12.10;;;7.50;;
4424;SDS011;2225;53.568;13.266;2024-03-25T02:49:50;17.07;;;8.90;;
4424;SDS011;2225;53.568;13.266;2024-03-25T02:52:16;14.10;;;8.07;;
4424;SDS011;2225;53.568;13.266;2024-03-25T02:54:44;11.33;;;6.57;;
4424;SDS011;2225;53.568;13.266;2024-03-25T02:57:10;11.40;;;7.07;;
4424;SDS011;2225;53.568;13.266;2024-03-25T02:59:36;12.20;;;7.40;;
4424;SDS011;2225;53.568;13.266;2024-03-25T03:02:02;13.30;;;7.73;;
4424;SDS011;2225;53.568;13.266;2024-03-25T03:04:28;12.00;;;7.83;;
4424;SDS011;2225;53.568;13.266;2024-03-25T03:06:54;12.40;;;8.00;;
4424;SDS011;2225;53.568;13.266;2024-03-25T03:09:21;16.33;;;8.27;;
4424;SDS011;2225;53.568;13.266;2024-03-25T03:11:47;14.50;;;8.00;;
4424;SDS011;2225;53.568;13.266;2024-03-25T03:14:13;11.73;;;7.23;;
4424;SDS011;2225;53.568;13.266;2024-03-25T03:16:40;26.90;;;8.20;;
4424;SDS011;2225;53.568;13.266;2024-03-25T03:19:06;11.97;;;7.47;;
4424;SDS011;2225;53.568;13.266;2024-03-25T03:21:31;16.67;;;8.93;;
4424;SDS011;2225;53.568;13.266;2024-03-25T03:23:57;17.63;;;9.00;;
4424;SDS011;2225;53.568;13.266;2024-03-25T03:26:23;14.67;;;8.50;;
4424;SDS011;2225;53.568;13.266;2024-03-25T03:28:55;14.97;;;8.07;;
4424;SDS011;2225;53.568;13.266;2024-03-25T03:31:25;17.50;;;9.23;;
4424;SDS011;2225;53.568;13.266;2024-03-25T03:33:52;14.67;;;8.87;;
4424;SDS011;2225;53.568;13.266;2024-03-25T03:36:18;13.97;;;8.40;;
4424;SDS011;2225;53.568;13.266;2024-03-25T03:38:46;15.00;;;9.10;;
4424;SDS011;2225;53.568;13.266;2024-03-25T03:41:12;17.33;;;8.67;;
4424;SDS011;2225;53.568;13.266;2024-03-25T03:43:38;14.10;;;8.67;;
4424;SDS011;2225;53.568;13.266;2024-03-25T03:46:04;14.93;;;8.00;;
4424;SDS011;2225;53.568;13.266;2024-03-25T03:48:30;14.47;;;8.00;;
4424;SDS011;2225;53.568;13.266;2024-03-25T03:50:56;17.40;;;10.03;;
4424;SDS011;2225;53.568;13.266;2024-03-25T03:53:22;18.63;;;9.77;;
4424;SDS011;2225;53.568;13.266;2024-03-25T03:55:55;18.70;;;9.90;;
4424;SDS011;2225;53.568;13.266;2024-03-25T03:58:24;14.77;;;9.47;;
4424;SDS011;2225;53.568;13.266;2024-03-25T04:00:51;16.90;;;9.73;;
4424;SDS011;2225;53.568;13.266;2024-03-25T04:03:17;16.93;;;9.70;;
4424;SDS011;2225;53.568;13.266;2024-03-25T04:05:44;23.23;;;9.97;;
4424;SDS011;2225;53.568;13.266;2024-03-25T04:08:11;17.10;;;10.03;;
4424;SDS011;2225;53.568;13.266;2024-03-25T04:10:37;16.87;;;9.60;;
4424;SDS011;2225;53.568;13.266;2024-03-25T04:13:04;14.20;;;9.60;;
4424;SDS011;2225;53.568;13.266;2024-03-25T04:15:33;13.97;;;8.77;;
4424;SDS011;2225;53.568;13.266;2024-03-25T04:18:00;16.30;;;10.13;;
4424;SDS011;2225;53.568;13.266;2024-03-25T04:20:27;18.80;;;10.80;;
4424;SDS011;2225;53.568;13.266;2024-03-25T04:22:56;18.47;;;10.80;;
4424;SDS011;2225;53.568;13.266;2024-03-25T04:25:22;16.57;;;9.77;;
4424;SDS011;2225;53.568;13.266;2024-03-25T04:27:48;20.97;;;11.47;;
4424;SDS011;2225;53.568;13.266;2024-03-25T04:30:14;14.60;;;8.70;;
4424;SDS011;2225;53.568;13.266;2024-03-25T04:32:40;16.33;;;8.50;;
4424;SDS011;2225;53.568;13.266;2024-03-25T04:35:06;18.40;;;9.83;;
4424;SDS011;2225;53.568;13.266;2024-03-25T04:37:33;16.43;;;9.13;;
4424;SDS011;2225;53.568;13.266;2024-03-25T04:40:00;19.00;;;11.40;;
4424;SDS011;2225;53.568;13.266;2024-03-25T04:42:27;19.63;;;10.10;;
4424;SDS011;2225;53.568;13.266;2024-03-25T04:44:53;17.97;;;9.23;;
4424;SDS011;2225;53.568;13.266;2024-03-25T04:47:19;15.07;;;9.80;;
4424;SDS011;2225;53.568;13.266;2024-03-25T04:49:45;15.87;;;9.40;;
4424;SDS011;2225;53.568;13.266;2024-03-25T04:52:11;14.70;;;8.90;;
4424;SDS011;2225;53.568;13.266;2024-03-25T04:54:38;22.23;;;9.93;;
4424;SDS011;2225;53.568;13.266;2024-03-25T04:57:05;18.17;;;9.27;;
4424;SDS011;2225;53.568;13.266;2024-03-25T04:59:34;18.00;;;9.80;;
4424;SDS011;2225;53.568;13.266;2024-03-25T05:02:00;30.13;;;9.80;;
4424;SDS011;2225;53.568;13.266;2024-03-25T05:04:26;16.13;;;9.47;;
4424;SDS011;2225;53.568;13.266;2024-03-25T05:06:52;21.00;;;10.53;;
4424;SDS011;2225;53.568;13.266;2024-03-25T05:09:18;17.43;;;9.60;;
4424;SDS011;2225;53.568;13.266;2024-03-25T05:11:44;16.23;;;9.83;;
4424;SDS011;2225;53.568;13.266;2024-03-25T05:14:10;21.43;;;10.70;;
4424;SDS011;2225;53.568;13.266;2024-03-25T05:16:36;17.20;;;10.17;;
4424;SDS011;2225;53.568;13.266;2024-03-25T05:19:02;18.90;;;10.93;;
4424;SDS011;2225;53.568;13.266;2024-03-25T05:21:30;20.27;;;10.17;;
4424;SDS011;2225;53.568;13.266;2024-03-25T05:23:56;18.43;;;9.83;;
4424;SDS011;2225;53.568;13.266;2024-03-25T05:26:22;23.93;;;9.90;;
4424;SDS011;2225;53.568;13.266;2024-03-25T05:28:55;23.10;;;11.80;;
4424;SDS011;2225;53.568;13.266;2024-03-25T05:31:21;21.07;;;11.10;;
4424;SDS011;2225;53.568;13.266;2024-03-25T05:33:48;19.97;;;10.73;;
4424;SDS011;2225;53.568;13.266;2024-03-25T05:36:14;18.87;;;11.10;;
4424;SDS011;2225;53.568;13.266;2024-03-25T05:38:40;18.63;;;11.17;;
4424;SDS011;2225;53.568;13.266;2024-03-25T05:41:08;18.43;;;10.60;;
4424;SDS011;2225;53.568;13.266;2024-03-25T05:43:37;20.47;;;10.27;;
4424;SDS011;2225;53.568;13.266;2024-03-25T05:46:03;23.60;;;11.20;;
4424;SDS011;2225;53.568;13.266;2024-03-25T05:48:29;17.73;;;10.60;;
4424;SDS011;2225;53.568;13.266;2024-03-25T05:51:03;19.63;;;10.53;;
4424;SDS011;2225;53.568;13.266;2024-03-25T05:53:30;21.63;;;11.50;;
4424;SDS011;2225;53.568;13.266;2024-03-25T05:55:59;20.40;;;11.60;;
4424;SDS011;2225;53.568;13.266;2024-03-25T05:58:25;17.67;;;11.10;;
4424;SDS011;2225;53.568;13.266;2024-03-25T06:00:52;21.17;;;12.70;;
4424;SDS011;2225;53.568;13.266;2024-03-25T06:03:18;21.50;;;11.23;;
4424;SDS011;2225;53.568;13.266;2024-03-25T06:05:44;23.17;;;11.50;;
4424;SDS011;2225;53.568;13.266;2024-03-25T06:08:11;21.27;;;11.73;;
4424;SDS011;2225;53.568;13.266;2024-03-25T06:10:50;20.57;;;11.17;;
4424;SDS011;2225;53.568;13.266;2024-03-25T06:13:16;22.17;;;11.63;;
4424;SDS011;2225;53.568;13.266;2024-03-25T06:15:43;30.63;;;12.53;;
4424;SDS011;2225;53.568;13.266;2024-03-25T06:18:09;20.40;;;11.70;;
4424;SDS011;2225;53.568;13.266;2024-03-25T06:20:35;26.23;;;13.10;;
4424;SDS011;2225;53.568;13.266;2024-03-25T06:23:01;17.23;;;10.80;;
4424;SDS011;2225;53.568;13.266;2024-03-25T06:25:27;20.10;;;13.07;;
4424;SDS011;2225;53.568;13.266;2024-03-25T06:27:56;25.27;;;13.30;;
4424;SDS011;2225;53.568;13.266;2024-03-25T06:30:22;23.27;;;12.33;;
4424;SDS011;2225;53.568;13.266;2024-03-25T06:33:07;29.87;;;14.23;;
4424;SDS011;2225;53.568;13.266;2024-03-25T06:35:52;24.10;;;14.67;;
4424;SDS011;2225;53.568;13.266;2024-03-25T06:38:18;27.17;;;12.60;;
4424;SDS011;2225;53.568;13.266;2024-03-25T06:40:47;29.50;;;14.17;;
4424;SDS011;2225;53.568;13.266;2024-03-25T06:43:13;21.70;;;12.57;;
4424;SDS011;2225;53.568;13.266;2024-03-25T06:45:41;24.63;;;14.30;;
4424;SDS011;2225;53.568;13.266;2024-03-25T06:48:07;27.10;;;14.30;;
4424;SDS011;2225;53.568;13.266;2024-03-25T06:50:33;24.50;;;14.63;;
4424;SDS011;2225;53.568;13.266;2024-03-25T06:52:59;24.60;;;13.60;;
4424;SDS011;2225;53.568;13.266;2024-03-25T06:55:25;22.47;;;13.23;;
4424;SDS011;2225;53.568;13.266;2024-03-25T06:57:53;24.90;;;14.77;;
4424;SDS011;2225;53.568;13.266;2024-03-25T07:00:20;25.83;;;14.70;;
4424;SDS011;2225;53.568;13.266;2024-03-25T07:02:47;21.77;;;13.03;;
4424;SDS011;2225;53.568;13.266;2024-03-25T07:05:14;30.23;;;13.73;;
4424;SDS011;2225;53.568;13.266;2024-03-25T07:07:40;23.23;;;12.87;;
4424;SDS011;2225;53.568;13.266;2024-03-25T07:10:07;24.13;;;13.70;;
4424;SDS011;2225;53.568;13.266;2024-03-25T07:12:33;21.13;;;13.10;;
4424;SDS011;2225;53.568;13.266;2024-03-25T07:14:59;31.83;;;14.00;;
4424;SDS011;2225;53.568;13.266;2024-03-25T07:17:25;27.93;;;14.47;;
4424;SDS011;2225;53.568;13.266;2024-03-25T07:19:51;30.03;;;14.07;;
4424;SDS011;2225;53.568;13.266;2024-03-25T07:22:17;28.90;;;15.60;;
4424;SDS011;2225;53.568;13.266;2024-03-25T07:24:44;25.60;;;14.13;;
4424;SDS011;2225;53.568;13.266;2024-03-25T07:27:10;27.57;;;14.30;;
4424;SDS011;2225;53.568;13.266;2024-03-25T07:29:36;25.20;;;13.77;;
4424;SDS011;2225;53.568;13.266;2024-03-25T07:32:02;21.47;;;12.30;;
4424;SDS011;2225;53.568;13.266;2024-03-25T07:34:29;23.67;;;13.70;;
4424;SDS011;2225;53.568;13.266;2024-03-25T07:36:55;27.83;;;13.07;;
4424;SDS011;2225;53.568;13.266;2024-03-25T07:39:21;25.70;;;13.53;;
4424;SDS011;2225;53.568;13.266;2024-03-25T07:41:49;24.40;;;12.60;;
4424;SDS011;2225;53.568;13.266;2024-03-25T07:44:15;24.07;;;13.17;;
4424;SDS011;2225;53.568;13.266;2024-03-25T07:46:41;26.87;;;13.40;;
4424;SDS011;2225;53.568;13.266;2024-03-25T07:49:07;23.40;;;13.00;;
4424;SDS011;2225;53.568;13.266;2024-03-25T07:51:33;23.10;;;12.80;;
4424;SDS011;2225;53.568;13.266;2024-03-25T07:54:01;23.90;;;12.70;;
4424;SDS011;2225;53.568;13.266;2024-03-25T07:56:28;25.43;;;13.30;;
4424;SDS011;2225;53.568;13.266;2024-03-25T07:58:55;19.70;;;11.40;;
4424;SDS011;2225;53.568;13.266;2024-03-25T08:01:21;21.30;;;11.77;;
4424;SDS011;2225;53.568;13.266;2024-03-25T08:03:47;23.27;;;11.97;;
4424;SDS011;2225;53.568;13.266;2024-03-25T08:06:13;22.37;;;12.73;;
4424;SDS011;2225;53.568;13.266;2024-03-25T08:08:39;25.30;;;13.10;;
4424;SDS011;2225;53.568;13.266;2024-03-25T08:11:05;23.30;;;13.50;;
4424;SDS011;2225;53.568;13.266;2024-03-25T08:13:31;24.70;;;12.90;;
4424;SDS011;2225;53.568;13.266;2024-03-25T08:15:57;23.10;;;12.10;;
4424;SDS011;2225;53.568;13.266;2024-03-25T08:18:23;27.20;;;15.30;;
4424;SDS011;2225;53.568;13.266;2024-03-25T08:20:49;22.37;;;12.50;;
4424;SDS011;2225;53.568;13.266;2024-03-25T08:23:15;26.63;;;13.00;;
4424;SDS011;2225;53.568;13.266;2024-03-25T08:25:41;27.63;;;14.30;;
4424;SDS011;2225;53.568;13.266;2024-03-25T08:28:07;28.93;;;16.70;;
4424;SDS011;2225;53.568;13.266;2024-03-25T08:30:33;31.63;;;16.80;;
4424;SDS011;2225;53.568;13.266;2024-03-25T08:32:59;28.87;;;15.40;;
4424;SDS011;2225;53.568;13.266;2024-03-25T08:35:24;31.80;;;16.63;;
4424;SDS011;2225;53.568;13.266;2024-03-25T08:37:50;29.80;;;16.97;;
4424;SDS011;2225;53.568;13.266;2024-03-25T08:40:16;30.70;;;17.40;;
4424;SDS011;2225;53.568;13.266;2024-03-25T08:42:42;31.37;;;17.37;;
4424;SDS011;2225;53.568;13.266;2024-03-25T08:45:08;30.40;;;18.13;;
4424;SDS011;2225;53.568;13.266;2024-03-25T08:47:35;33.27;;;17.40;;
4424;SDS011;2225;53.568;13.266;2024-03-25T08:50:03;31.00;;;16.63;;
4424;SDS011;2225;53.568;13.266;2024-03-25T08:52:29;30.60;;;17.10;;
4424;SDS011;2225;53.568;13.266;2024-03-25T08:54:55;32.80;;;17.70;;
4424;SDS011;2225;53.568;13.266;2024-03-25T08:57:21;33.30;;;18.57;;
4424;SDS011;2225;53.568;13.266;2024-03-25T08:59:47;32.63;;;18.77;;
4424;SDS011;2225;53.568;13.266;2024-03-25T09:02:13;26.17;;;14.03;;
4424;SDS011;2225;53.568;13.266;2024-03-25T09:04:42;25.40;;;12.20;;
4424;SDS011;2225;53.568;13.266;2024-03-25T09:07:08;20.50;;;10.30;;
4424;SDS011;2225;53.568;13.266;2024-03-25T09:09:34;16.73;;;8.33;;
4424;SDS011;2225;53.568;13.266;2024-03-25T09:12:18;16.23;;;9.00;;
4424;SDS011;2225;53.568;13.266;2024-03-25T09:14:44;15.83;;;8.27;;
4424;SDS011;2225;53.568;13.266;2024-03-25T09:17:11;13.07;;;7.37;;
4424;SDS011;2225;53.568;13.266;2024-03-25T09:19:37;20.13;;;8.67;;
4424;SDS011;2225;53.568;13.266;2024-03-25T09:22:03;14.43;;;7.93;;
4424;SDS011;2225;53.568;13.266;2024-03-25T09:24:29;11.43;;;5.67;;
4424;SDS011;2225;53.568;13.266;2024-03-25T09:26:56;15.00;;;6.37;;
4424;SDS011;2225;53.568;13.266;2024-03-25T09:29:22;12.13;;;5.97;;
4424;SDS011;2225;53.568;13.266;2024-03-25T09:31:48;11.50;;;4.70;;
4424;SDS011;2225;53.568;13.266;2024-03-25T09:34:14;8.47;;;4.23;;
4424;SDS011;2225;53.568;13.266;2024-03-25T09:36:40;11.13;;;4.80;;
4424;SDS011;2225;53.568;13.266;2024-03-25T09:39:06;9.27;;;4.87;;
4424;SDS011;2225;53.568;13.266;2024-03-25T09:41:33;11.03;;;5.17;;
4424;SDS011;2225;53.568;13.266;2024-03-25T09:44:02;11.83;;;4.90;;
4424;SDS011;2225;53.568;13.266;2024-03-25T09:46:31;11.77;;;5.43;;
4424;SDS011;2225;53.568;13.266;2024-03-25T09:48:58;9.77;;;5.23;;
4424;SDS011;2225;53.568;13.266;2024-03-25T09:51:25;11.33;;;6.00;;
4424;SDS011;2225;53.568;13.266;2024-03-25T09:53:51;11.33;;;6.10;;
4424;SDS011;2225;53.568;13.266;2024-03-25T09:56:17;10.77;;;5.17;;
4424;SDS011;2225;53.568;13.266;2024-03-25T09:58:43;11.70;;;5.83;;
4424;SDS011;2225;53.568;13.266;2024-03-25T10:01:10;10.90;;;5.60;;
4424;SDS011;2225;53.568;13.266;2024-03-25T10:03:36;12.20;;;5.53;;
4424;SDS011;2225;53.568;13.266;2024-03-25T10:06:02;11.17;;;5.47;;
4424;SDS011;2225;53.568;13.266;2024-03-25T10:08:28;11.53;;;5.73;;
4424;SDS011;2225;53.568;13.266;2024-03-25T10:10:57;10.63;;;5.40;;
4424;SDS011;2225;53.568;13.266;2024-03-25T10:13:25;12.77;;;4.97;;
4424;SDS011;2225;53.568;13.266;2024-03-25T10:15:52;8.83;;;4.67;;
4424;SDS011;2225;53.568;13.266;2024-03-25T10:18:20;11.33;;;5.53;;
4424;SDS011;2225;53.568;13.266;2024-03-25T10:20:49;9.47;;;4.30;;
4424;SDS011;2225;53.568;13.266;2024-03-25T10:23:19;8.07;;;4.50;;
4424;SDS011;2225;53.568;13.266;2024-03-25T10:25:47;10.30;;;4.37;;
4424;SDS011;2225;53.568;13.266;2024-03-25T10:28:13;10.33;;;3.93;;
4424;SDS011;2225;53.568;13.266;2024-03-25T10:30:40;8.33;;;4.53;;
4424;SDS011;2225;53.568;13.266;2024-03-25T10:33:07;9.73;;;4.10;;
4424;SDS011;2225;53.568;13.266;2024-03-25T10:35:34;9.43;;;3.30;;
4424;SDS011;2225;53.568;13.266;2024-03-25T10:38:09;7.40;;;3.70;;
4424;SDS011;2225;53.568;13.266;2024-03-25T10:40:39;9.20;;;3.60;;
4424;SDS011;2225;53.568;13.266;2024-03-25T10:43:07;10.00;;;4.10;;
4424;SDS011;2225;53.568;13.266;2024-03-25T10:45:45;8.33;;;3.60;;
4424;SDS011;2225;53.568;13.266;2024-03-25T10:48:20;6.87;;;3.53;;
4424;SDS011;2225;53.568;13.266;2024-03-25T10:50:53;6.40;;;3.10;;
4424;SDS011;2225;53.568;13.266;2024-03-25T10:53:21;8.07;;;3.67;;
4424;SDS011;2225;53.568;13.266;2024-03-25T10:55:53;7.20;;;3.40;;
4424;SDS011;2225;53.568;13.266;2024-03-25T10:58:23;7.17;;;3.50;;
4424;SDS011;2225;53.568;13.266;2024-03-25T11:00:50;11.93;;;3.77;;
4424;SDS011;2225;53.568;13.266;2024-03-25T11:03:20;8.60;;;3.80;;
4424;SDS011;2225;53.568;13.266;2024-03-25T11:05:47;9.40;;;3.73;;
4424;SDS011;2225;53.568;13.266;2024-03-25T11:08:13;10.23;;;3.63;;
4424;SDS011;2225;53.568;13.266;2024-03-25T11:10:41;12.30;;;5.20;;
4424;SDS011;2225;53.568;13.266;2024-03-25T11:13:14;11.17;;;4.20;;
4424;SDS011;2225;53.568;13.266;2024-03-25T11:15:43;9.37;;;3.90;;
4424;SDS011;2225;53.568;13.266;2024-03-25T11:18:15;10.17;;;3.80;;
4424;SDS011;2225;53.568;13.266;2024-03-25T11:20:42;11.20;;;3.53;;
4424;SDS011;2225;53.568;13.266;2024-03-25T11:23:10;8.90;;;3.73;;
4424;SDS011;2225;53.568;13.266;2024-03-25T11:25:37;8.57;;;4.10;;
4424;SDS011;2225;53.568;13.266;2024-03-25T11:28:04;10.43;;;3.97;;
4424;SDS011;2225;53.568;13.266;2024-03-25T11:30:31;10.30;;;3.83;;
4424;SDS011;2225;53.568;13.266;2024-03-25T11:32:58;7.77;;;3.10;;
4424;SDS011;2225;53.568;13.266;2024-03-25T11:35:27;10.10;;;3.50;;
4424;SDS011;2225;53.568;13.266;2024-03-25T11:37:53;8.83;;;4.10;;
4424;SDS011;2225;53.568;13.266;2024-03-25T11:40:19;11.20;;;4.80;;
4424;SDS011;2225;53.568;13.266;2024-03-25T11:42:46;8.60;;;3.73;;
4424;SDS011;2225;53.568;13.266;2024-03-25T11:45:16;8.83;;;4.07;;
4424;SDS011;2225;53.568;13.266;2024-03-25T11:47:43;13.10;;;4.53;;
4424;SDS011;2225;53.568;13.266;2024-03-25T11:50:14;9.73;;;4.23;;
4424;SDS011;2225;53.568;13.266;2024-03-25T11:52:45;11.97;;;4.53;;
4424;SDS011;2225;53.568;13.266;2024-03-25T11:55:15;9.50;;;3.97;;
4424;SDS011;2225;53.568;13.266;2024-03-25T11:57:42;13.20;;;4.60;;
4424;SDS011;2225;53.568;13.266;2024-03-25T12:00:09;8.53;;;4.07;;
4424;SDS011;2225;53.568;13.266;2024-03-25T12:02:43;13.10;;;3.77;;
4424;SDS011;2225;53.568;13.266;2024-03-25T12:05:15;8.73;;;3.13;;
4424;SDS011;2225;53.568;13.266;2024-03-25T12:07:41;10.30;;;4.10;;
4424;SDS011;2225;53.568;13.266;2024-03-25T12:10:07;10.43;;;4.13;;
4424;SDS011;2225;53.568;13.266;2024-03-25T12:12:52;8.80;;;3.80;;
4424;SDS011;2225;53.568;13.266;2024-03-25T12:15:22;9.23;;;3.90;;
4424;SDS011;2225;53.568;13.266;2024-03-25T12:17:48;13.33;;;4.10;;
4424;SDS011;2225;53.568;13.266;2024-03-25T12:20:16;15.07;;;5.03;;
4424;SDS011;2225;53.568;13.266;2024-03-25T12:22:43;12.83;;;4.80;;
4424;SDS011;2225;53.568;13.266;2024-03-25T12:25:09;9.10;;;3.97;;
4424;SDS011;2225;53.568;13.266;2024-03-25T12:27:36;7.60;;;3.00;;
4424;SDS011;2225;53.568;13.266;2024-03-25T12:30:04;9.37;;;3.10;;
4424;SDS011;2225;53.568;13.266;2024-03-25T12:32:39;9.83;;;3.10;;
4424;SDS011;2225;53.568;13.266;2024-03-25T12:35:07;9.60;;;2.87;;
4424;SDS011;2225;53.568;13.266;2024-03-25T12:37:42;6.90;;;2.83;;
4424;SDS011;2225;53.568;13.266;2024-03-25T12:40:10;7.90;;;3.07;;
4424;SDS011;2225;53.568;13.266;2024-03-25T12:42:38;17.53;;;3.53;;
4424;SDS011;2225;53.568;13.266;2024-03-25T12:45:05;8.13;;;3.40;;
4424;SDS011;2225;53.568;13.266;2024-03-25T12:47:32;7.03;;;2.77;;
4424;SDS011;2225;53.568;13.266;2024-03-25T12:49:59;9.13;;;2.70;;
4424;SDS011;2225;53.568;13.266;2024-03-25T12:52:25;7.70;;;2.80;;
4424;SDS011;2225;53.568;13.266;2024-03-25T12:54:51;6.47;;;2.30;;
4424;SDS011;2225;53.568;13.266;2024-03-25T12:57:17;7.50;;;3.17;;
4424;SDS011;2225;53.568;13.266;2024-03-25T12:59:44;8.23;;;2.30;;
4424;SDS011;2225;53.568;13.266;2024-03-25T13:02:11;7.90;;;2.93;;
4424;SDS011;2225;53.568;13.266;2024-03-25T13:04:38;9.70;;;3.33;;
4424;SDS011;2225;53.568;13.266;2024-03-25T13:07:06;11.13;;;3.53;;
4424;SDS011;2225;53.568;13.266;2024-03-25T13:09:32;9.40;;;2.50;;
4424;SDS011;2225;53.568;13.266;2024-03-25T13:11:58;8.10;;;2.90;;
4424;SDS011;2225;53.568;13.266;2024-03-25T13:14:25;7.17;;;2.70;;
4424;SDS011;2225;53.568;13.266;2024-03-25T13:16:52;6.10;;;2.23;;
4424;SDS011;2225;53.568;13.266;2024-03-25T13:19:18;7.20;;;2.60;;
4424;SDS011;2225;53.568;13.266;2024-03-25T13:21:44;9.07;;;2.87;;
4424;SDS011;2225;53.568;13.266;2024-03-25T13:24:10;6.57;;;2.13;;
4424;SDS011;2225;53.568;13.266;2024-03-25T13:26:36;10.40;;;2.60;;
4424;SDS011;2225;53.568;13.266;2024-03-25T13:29:02;6.53;;;2.37;;
4424;SDS011;2225;53.568;13.266;2024-03-25T13:31:28;11.27;;;2.73;;
4424;SDS011;2225;53.568;13.266;2024-03-25T13:33:54;6.30;;;2.40;;
4424;SDS011;2225;53.568;13.266;2024-03-25T13:36:20;7.83;;;2.27;;
4424;SDS011;2225;53.568;13.266;2024-03-25T13:38:46;6.90;;;2.47;;
4424;SDS011;2225;53.568;13.266;2024-03-25T13:41:12;5.97;;;2.37;;
4424;SDS011;2225;53.568;13.266;2024-03-25T13:43:44;10.47;;;2.77;;
4424;SDS011;2225;53.568;13.266;2024-03-25T13:46:10;8.63;;;2.60;;
4424;SDS011;2225;53.568;13.266;2024-03-25T13:48:37;5.87;;;1.70;;
4424;SDS011;2225;53.568;13.266;2024-03-25T13:51:03;8.87;;;2.40;;
4424;SDS011;2225;53.568;13.266;2024-03-25T13:53:29;6.57;;;2.00;;
4424;SDS011;2225;53.568;13.266;2024-03-25T13:55:55;6.27;;;2.50;;
4424;SDS011;2225;53.568;13.266;2024-03-25T13:58:21;6.73;;;2.80;;
4424;SDS011;2225;53.568;13.266;2024-03-25T14:00:47;7.90;;;2.40;;
4424;SDS011;2225;53.568;13.266;2024-03-25T14:03:13;8.80;;;2.40;;
4424;SDS011;2225;53.568;13.266;2024-03-25T14:05:41;13.60;;;4.60;;
4424;SDS011;2225;53.568;13.266;2024-03-25T14:08:07;6.80;;;3.00;;
4424;SDS011;2225;53.568;13.266;2024-03-25T14:10:33;9.10;;;3.03;;
4424;SDS011;2225;53.568;13.266;2024-03-25T14:12:59;8.40;;;2.30;;
4424;SDS011;2225;53.568;13.266;2024-03-25T14:15:25;6.40;;;2.53;;
4424;SDS011;2225;53.568;13.266;2024-03-25T14:17:51;6.30;;;2.33;;
4424;SDS011;2225;53.568;13.266;2024-03-25T14:20:17;10.00;;;2.70;;
4424;SDS011;2225;53.568;13.266;2024-03-25T14:22:43;7.20;;;3.00;;
4424;SDS011;2225;53.568;13.266;2024-03-25T14:25:09;5.83;;;2.10;;
4424;SDS011;2225;53.568;13.266;2024-03-25T14:27:35;7.10;;;2.50;;
4424;SDS011;2225;53.568;13.266;2024-03-25T14:30:01;6.20;;;1.97;;
4424;SDS011;2225;53.568;13.266;2024-03-25T14:32:27;6.43;;;2.57;;
4424;SDS011;2225;53.568;13.266;2024-03-25T14:34:53;7.43;;;2.50;;
4424;SDS011;2225;53.568;13.266;2024-03-25T14:37:21;5.77;;;1.90;;
4424;SDS011;2225;53.568;13.266;2024-03-25T14:39:47;5.63;;;2.10;;
4424;SDS011;2225;53.568;13.266;2024-03-25T14:42:12;6.53;;;2.30;;
4424;SDS011;2225;53.568;13.266;2024-03-25T14:44:38;7.53;;;1.90;;
4424;SDS011;2225;53.568;13.266;2024-03-25T14:47:04;5.90;;;2.00;;